sensor_id;sensor_type;location;lat;lon;timestamp;P1;durP1;ratioP1;P2;durP2;ratioP2
22184;SDS011;11258;52.516;13.318;2023-03-19T00:01:56;17.20;;;11.60;;
22184;SDS011;11258;52.516;13.318;2023-03-19T00:04:23;19.40;;;12.07;;
22184;SDS011;11258;52.516;13.318;2023-03-19T00:06:50;16.07;;;11.43;;
22184;SDS011;11258;52.516;13.318;2023-03-19T00:09:16;18.30;;;11.57;;
22184;SDS011;11258;52.516;13.318;2023-03-19T00:11:42;13.83;;;10.83;;
22184;SDS011;11258;52.516;13.318;2023-03-19T00:14:08;17.17;;;11.30;;
22184;SDS011;11258;52.516;13.318;2023-03-19T00:16:34;18.80;;;11.43;;
22184;SDS011;11258;52.516;13.318;2023-03-19T00:19:00;13.60;;;9.87;;
22184;SDS011;11258;52.516;13.318;2023-03-19T00:21:27;15.17;;;9.87;;
22184;SDS011;11258;52.516;13.318;2023-03-19T00:23:54;18.97;;;10.47;;
22184;SDS011;11258;52.516;13.318;2023-03-19T00:26:25;16.33;;;11.07;;
22184;SDS011;11258;52.516;13.318;2023-03-19T00:28:51;18.30;;;11.20;;
22184;SDS011;11258;52.516;13.318;2023-03-19T00:31:16;17.30;;;11.07;;
22184;SDS011;11258;52.516;13.318;2023-03-19T00:33:42;15.80;;;10.47;;
22184;SDS011;11258;52.516;13.318;2023-03-19T00:36:09;17.80;;;11.03;;
22184;SDS011;11258;52.516;13.318;2023-03-19T00:38:35;18.27;;;10.70;;
22184;SDS011;11258;52.516;13.318;2023-03-19T00:41:02;15.80;;;11.13;;
22184;SDS011;11258;52.516;13.318;2023-03-19T00:43:29;16.27;;;9.97;;
22184;SDS011;11258;52.516;13.318;2023-03-19T00:45:55;13.80;;;10.63;;
22184;SDS011;11258;52.516;13.318;2023-03-19T00:48:20;18.60;;;11.07;;
22184;SDS011;11258;52.516;13.318;2023-03-19T00:50:46;17.03;;;10.43;;
22184;SDS011;11258;52.516;13.318;2023-03-19T00:53:12;18.00;;;10.30;;
22184;SDS011;11258;52.516;13.318;2023-03-19T00:55:38;15.10;;;10.73;;
22184;SDS011;11258;52.516;13.318;2023-03-19T00:58:04;14.43;;;10.27;;
22184;SDS011;11258;52.516;13.318;2023-03-19T01:00:31;15.27;;;10.33;;
22184;SDS011;11258;52.516;13.318;2023-03-19T01:02:58;16.40;;;10.30;;
22184;SDS011;11258;52.516;13.318;2023-03-19T01:05:24;16.27;;;10.60;;
22184;SDS011;11258;52.516;13.318;2023-03-19T01:07:50;14.73;;;10.07;;
22184;SDS011;11258;52.516;13.318;2023-03-19T01:10:17;14.80;;;9.47;;
22184;SDS011;11258;52.516;13.318;2023-03-19T01:12:43;15.80;;;10.00;;
22184;SDS011;11258;52.516;13.318;2023-03-19T01:15:09;16.77;;;10.23;;
22184;SDS011;11258;52.516;13.318;2023-03-19T01:17:35;15.40;;;9.87;;
22184;SDS011;11258;52.516;13.318;2023-03-19T01:20:01;17.87;;;9.77;;
22184;SDS011;11258;52.516;13.318;2023-03-19T01:22:27;17.07;;;10.10;;
22184;SDS011;11258;52.516;13.318;2023-03-19T01:24:53;18.07;;;10.43;;
22184;SDS011;11258;52.516;13.318;2023-03-19T01:27:19;16.53;;;10.60;;
22184;SDS011;11258;52.516;13.318;2023-03-19T01:29:45;18.63;;;10.77;;
22184;SDS011;11258;52.516;13.318;2023-03-19T01:32:10;17.10;;;10.13;;
22184;SDS011;11258;52.516;13.318;2023-03-19T01:34:36;16.83;;;10.03;;
22184;SDS011;11258;52.516;13.318;2023-03-19T01:37:02;16.53;;;10.83;;
22184;SDS011;11258;52.516;13.318;2023-03-19T01:39:27;14.30;;;11.20;;
22184;SDS011;11258;52.516;13.318;2023-03-19T01:41:53;15.33;;;9.80;;
22184;SDS011;11258;52.516;13.318;2023-03-19T01:44:22;16.97;;;10.27;;
22184;SDS011;11258;52.516;13.318;2023-03-19T01:46:59;15.77;;;10.57;;
22184;SDS011;11258;52.516;13.318;2023-03-19T01:49:29;16.73;;;10.90;;
22184;SDS011;11258;52.516;13.318;2023-03-19T01:51:55;18.07;;;11.13;;
22184;SDS011;11258;52.516;13.318;2023-03-19T01:54:23;18.87;;;10.80;;
22184;SDS011;11258;52.516;13.318;2023-03-19T01:56:51;15.80;;;9.80;;
22184;SDS011;11258;52.516;13.318;2023-03-19T01:59:24;18.93;;;11.93;;
22184;SDS011;11258;52.516;13.318;2023-03-19T02:01:55;17.10;;;11.03;;
22184;SDS011;11258;52.516;13.318;2023-03-19T02:04:24;13.97;;;10.67;;
22184;SDS011;11258;52.516;13.318;2023-03-19T02:06:53;16.17;;;10.93;;
22184;SDS011;11258;52.516;13.318;2023-03-19T02:09:20;16.40;;;10.50;;
22184;SDS011;11258;52.516;13.318;2023-03-19T02:11:46;17.63;;;11.03;;
22184;SDS011;11258;52.516;13.318;2023-03-19T02:14:12;19.30;;;11.00;;
22184;SDS011;11258;52.516;13.318;2023-03-19T02:16:38;15.73;;;10.60;;
22184;SDS011;11258;52.516;13.318;2023-03-19T02:19:05;15.80;;;10.23;;
22184;SDS011;11258;52.516;13.318;2023-03-19T02:21:37;16.53;;;11.23;;
22184;SDS011;11258;52.516;13.318;2023-03-19T02:24:07;17.10;;;12.03;;
22184;SDS011;11258;52.516;13.318;2023-03-19T02:26:38;16.13;;;10.53;;
22184;SDS011;11258;52.516;13.318;2023-03-19T02:29:06;17.23;;;10.83;;
22184;SDS011;11258;52.516;13.318;2023-03-19T02:31:31;14.70;;;10.37;;
22184;SDS011;11258;52.516;13.318;2023-03-19T02:36:28;17.13;;;10.83;;
22184;SDS011;11258;52.516;13.318;2023-03-19T02:39:09;18.70;;;11.40;;
22184;SDS011;11258;52.516;13.318;2023-03-19T02:41:41;18.17;;;11.53;;
22184;SDS011;11258;52.516;13.318;2023-03-19T02:44:09;20.87;;;11.00;;
22184;SDS011;11258;52.516;13.318;2023-03-19T02:46:36;15.63;;;11.07;;
22184;SDS011;11258;52.516;13.318;2023-03-19T02:49:02;15.63;;;10.87;;
22184;SDS011;11258;52.516;13.318;2023-03-19T02:51:28;16.63;;;10.97;;
22184;SDS011;11258;52.516;13.318;2023-03-19T02:53:54;18.27;;;11.43;;
22184;SDS011;11258;52.516;13.318;2023-03-19T02:56:19;16.70;;;11.73;;
22184;SDS011;11258;52.516;13.318;2023-03-19T02:58:45;16.87;;;11.13;;
22184;SDS011;11258;52.516;13.318;2023-03-19T03:01:11;18.40;;;11.23;;
22184;SDS011;11258;52.516;13.318;2023-03-19T03:03:36;17.80;;;11.37;;
22184;SDS011;11258;52.516;13.318;2023-03-19T03:06:02;19.50;;;11.93;;
22184;SDS011;11258;52.516;13.318;2023-03-19T03:08:28;16.53;;;11.30;;
22184;SDS011;11258;52.516;13.318;2023-03-19T03:10:53;20.33;;;12.27;;
22184;SDS011;11258;52.516;13.318;2023-03-19T03:13:19;21.60;;;12.30;;
22184;SDS011;11258;52.516;13.318;2023-03-19T03:15:45;20.80;;;12.53;;
22184;SDS011;11258;52.516;13.318;2023-03-19T03:18:11;20.27;;;12.10;;
22184;SDS011;11258;52.516;13.318;2023-03-19T03:20:36;19.83;;;12.87;;
22184;SDS011;11258;52.516;13.318;2023-03-19T03:23:02;20.80;;;12.37;;
22184;SDS011;11258;52.516;13.318;2023-03-19T03:25:28;18.27;;;12.30;;
22184;SDS011;11258;52.516;13.318;2023-03-19T03:27:54;20.37;;;12.73;;
22184;SDS011;11258;52.516;13.318;2023-03-19T03:30:20;20.67;;;12.50;;
22184;SDS011;11258;52.516;13.318;2023-03-19T03:32:45;18.07;;;11.97;;
22184;SDS011;11258;52.516;13.318;2023-03-19T03:35:11;18.87;;;12.10;;
22184;SDS011;11258;52.516;13.318;2023-03-19T03:37:37;19.53;;;12.07;;
22184;SDS011;11258;52.516;13.318;2023-03-19T03:40:04;18.63;;;12.80;;
22184;SDS011;11258;52.516;13.318;2023-03-19T03:42:32;20.40;;;12.67;;
22184;SDS011;11258;52.516;13.318;2023-03-19T03:45:00;19.57;;;12.70;;
22184;SDS011;11258;52.516;13.318;2023-03-19T03:47:26;17.83;;;11.70;;
22184;SDS011;11258;52.516;13.318;2023-03-19T03:49:51;19.37;;;12.30;;
22184;SDS011;11258;52.516;13.318;2023-03-19T03:52:17;18.93;;;12.93;;
22184;SDS011;11258;52.516;13.318;2023-03-19T03:54:42;19.50;;;12.40;;
22184;SDS011;11258;52.516;13.318;2023-03-19T03:57:08;20.80;;;12.73;;
22184;SDS011;11258;52.516;13.318;2023-03-19T03:59:34;20.50;;;11.83;;
22184;SDS011;11258;52.516;13.318;2023-03-19T04:02:00;17.23;;;12.33;;
22184;SDS011;11258;52.516;13.318;2023-03-19T04:04:25;17.17;;;11.97;;
22184;SDS011;11258;52.516;13.318;2023-03-19T04:06:51;21.70;;;12.70;;
22184;SDS011;11258;52.516;13.318;2023-03-19T04:09:17;20.40;;;12.33;;
22184;SDS011;11258;52.516;13.318;2023-03-19T04:11:43;17.33;;;12.47;;
22184;SDS011;11258;52.516;13.318;2023-03-19T04:14:09;18.97;;;12.50;;
22184;SDS011;11258;52.516;13.318;2023-03-19T04:16:35;18.13;;;11.77;;
22184;SDS011;11258;52.516;13.318;2023-03-19T04:19:00;17.10;;;11.67;;
22184;SDS011;11258;52.516;13.318;2023-03-19T04:21:26;20.37;;;12.90;;
22184;SDS011;11258;52.516;13.318;2023-03-19T04:23:52;20.77;;;12.83;;
22184;SDS011;11258;52.516;13.318;2023-03-19T04:26:18;19.90;;;12.73;;
22184;SDS011;11258;52.516;13.318;2023-03-19T04:28:43;18.73;;;11.60;;
22184;SDS011;11258;52.516;13.318;2023-03-19T04:31:09;18.60;;;12.10;;
22184;SDS011;11258;52.516;13.318;2023-03-19T04:33:35;17.33;;;12.40;;
22184;SDS011;11258;52.516;13.318;2023-03-19T04:36:01;19.90;;;13.13;;
22184;SDS011;11258;52.516;13.318;2023-03-19T04:38:27;19.23;;;12.97;;
22184;SDS011;11258;52.516;13.318;2023-03-19T04:40:56;21.57;;;13.17;;
22184;SDS011;11258;52.516;13.318;2023-03-19T04:43:22;20.00;;;12.97;;
22184;SDS011;11258;52.516;13.318;2023-03-19T04:45:48;18.37;;;11.97;;
22184;SDS011;11258;52.516;13.318;2023-03-19T04:48:14;25.23;;;13.07;;
22184;SDS011;11258;52.516;13.318;2023-03-19T04:50:40;19.97;;;13.17;;
22184;SDS011;11258;52.516;13.318;2023-03-19T04:53:05;20.13;;;13.07;;
22184;SDS011;11258;52.516;13.318;2023-03-19T04:55:31;23.40;;;12.50;;
22184;SDS011;11258;52.516;13.318;2023-03-19T04:57:58;20.33;;;12.37;;
22184;SDS011;11258;52.516;13.318;2023-03-19T05:00:24;19.10;;;14.40;;
22184;SDS011;11258;52.516;13.318;2023-03-19T05:02:50;18.73;;;13.40;;
22184;SDS011;11258;52.516;13.318;2023-03-19T05:05:16;16.90;;;12.00;;
22184;SDS011;11258;52.516;13.318;2023-03-19T05:07:42;18.40;;;12.80;;
22184;SDS011;11258;52.516;13.318;2023-03-19T05:10:08;19.73;;;13.50;;
22184;SDS011;11258;52.516;13.318;2023-03-19T05:12:35;20.07;;;11.93;;
22184;SDS011;11258;52.516;13.318;2023-03-19T05:15:00;23.37;;;13.07;;
22184;SDS011;11258;52.516;13.318;2023-03-19T05:17:26;19.97;;;14.03;;
22184;SDS011;11258;52.516;13.318;2023-03-19T05:19:52;19.03;;;12.70;;
22184;SDS011;11258;52.516;13.318;2023-03-19T05:22:18;19.13;;;13.20;;
22184;SDS011;11258;52.516;13.318;2023-03-19T05:24:44;20.20;;;12.97;;
22184;SDS011;11258;52.516;13.318;2023-03-19T05:27:10;18.20;;;12.93;;
22184;SDS011;11258;52.516;13.318;2023-03-19T05:29:36;17.70;;;13.00;;
22184;SDS011;11258;52.516;13.318;2023-03-19T05:32:02;21.20;;;14.00;;
22184;SDS011;11258;52.516;13.318;2023-03-19T05:34:28;29.37;;;15.03;;
22184;SDS011;11258;52.516;13.318;2023-03-19T05:36:54;18.73;;;14.10;;
22184;SDS011;11258;52.516;13.318;2023-03-19T05:39:19;18.40;;;12.57;;
22184;SDS011;11258;52.516;13.318;2023-03-19T05:41:45;23.23;;;14.10;;
22184;SDS011;11258;52.516;13.318;2023-03-19T05:44:11;18.43;;;12.03;;
22184;SDS011;11258;52.516;13.318;2023-03-19T05:46:37;20.67;;;12.10;;
22184;SDS011;11258;52.516;13.318;2023-03-19T05:49:02;18.50;;;12.63;;
22184;SDS011;11258;52.516;13.318;2023-03-19T05:51:28;18.00;;;12.60;;
22184;SDS011;11258;52.516;13.318;2023-03-19T05:53:55;15.60;;;11.53;;
22184;SDS011;11258;52.516;13.318;2023-03-19T05:56:20;13.93;;;10.80;;
22184;SDS011;11258;52.516;13.318;2023-03-19T05:58:46;15.93;;;11.33;;
22184;SDS011;11258;52.516;13.318;2023-03-19T06:01:11;15.37;;;10.77;;
22184;SDS011;11258;52.516;13.318;2023-03-19T06:03:37;19.70;;;12.52;;
22184;SDS011;11258;52.516;13.318;2023-03-19T06:06:03;19.37;;;11.17;;
22184;SDS011;11258;52.516;13.318;2023-03-19T06:08:29;16.53;;;11.13;;
22184;SDS011;11258;52.516;13.318;2023-03-19T06:10:54;17.53;;;11.80;;
22184;SDS011;11258;52.516;13.318;2023-03-19T06:13:20;13.87;;;10.07;;
22184;SDS011;11258;52.516;13.318;2023-03-19T06:15:46;14.27;;;10.47;;
22184;SDS011;11258;52.516;13.318;2023-03-19T06:18:13;14.97;;;9.53;;
22184;SDS011;11258;52.516;13.318;2023-03-19T06:20:39;14.60;;;9.53;;
22184;SDS011;11258;52.516;13.318;2023-03-19T06:23:06;12.35;;;8.98;;
22184;SDS011;11258;52.516;13.318;2023-03-19T06:25:32;14.85;;;9.07;;
22184;SDS011;11258;52.516;13.318;2023-03-19T06:27:57;13.70;;;8.70;;
22184;SDS011;11258;52.516;13.318;2023-03-19T06:30:23;12.93;;;9.02;;
22184;SDS011;11258;52.516;13.318;2023-03-19T06:32:49;10.48;;;8.00;;
22184;SDS011;11258;52.516;13.318;2023-03-19T06:35:15;13.13;;;8.80;;
22184;SDS011;11258;52.516;13.318;2023-03-19T06:37:41;10.93;;;8.00;;
22184;SDS011;11258;52.516;13.318;2023-03-19T06:40:07;11.65;;;8.50;;
22184;SDS011;11258;52.516;13.318;2023-03-19T06:42:33;11.23;;;7.88;;
22184;SDS011;11258;52.516;13.318;2023-03-19T06:44:59;13.32;;;8.80;;
22184;SDS011;11258;52.516;13.318;2023-03-19T06:47:25;15.40;;;9.23;;
22184;SDS011;11258;52.516;13.318;2023-03-19T06:49:51;13.35;;;8.70;;
22184;SDS011;11258;52.516;13.318;2023-03-19T06:52:16;13.52;;;10.07;;
22184;SDS011;11258;52.516;13.318;2023-03-19T06:54:42;13.93;;;9.52;;
22184;SDS011;11258;52.516;13.318;2023-03-19T06:57:08;13.32;;;10.25;;
22184;SDS011;11258;52.516;13.318;2023-03-19T06:59:33;14.85;;;10.15;;
22184;SDS011;11258;52.516;13.318;2023-03-19T07:01:59;14.38;;;10.70;;
22184;SDS011;11258;52.516;13.318;2023-03-19T07:04:24;16.67;;;12.48;;
22184;SDS011;11258;52.516;13.318;2023-03-19T07:06:50;19.40;;;13.17;;
22184;SDS011;11258;52.516;13.318;2023-03-19T07:09:16;16.90;;;12.13;;
22184;SDS011;11258;52.516;13.318;2023-03-19T07:11:42;16.33;;;11.90;;
22184;SDS011;11258;52.516;13.318;2023-03-19T07:14:07;18.37;;;13.13;;
22184;SDS011;11258;52.516;13.318;2023-03-19T07:16:33;21.47;;;13.33;;
22184;SDS011;11258;52.516;13.318;2023-03-19T07:18:59;17.47;;;12.53;;
22184;SDS011;11258;52.516;13.318;2023-03-19T07:21:25;15.93;;;12.07;;
22184;SDS011;11258;52.516;13.318;2023-03-19T07:23:51;19.23;;;13.53;;
22184;SDS011;11258;52.516;13.318;2023-03-19T07:26:16;20.43;;;16.33;;
22184;SDS011;11258;52.516;13.318;2023-03-19T07:28:42;19.33;;;14.17;;
22184;SDS011;11258;52.516;13.318;2023-03-19T07:31:08;20.83;;;13.37;;
22184;SDS011;11258;52.516;13.318;2023-03-19T07:33:34;19.93;;;13.43;;
22184;SDS011;11258;52.516;13.318;2023-03-19T07:36:00;22.50;;;14.57;;
22184;SDS011;11258;52.516;13.318;2023-03-19T07:38:25;20.83;;;14.70;;
22184;SDS011;11258;52.516;13.318;2023-03-19T07:40:51;23.60;;;15.37;;
22184;SDS011;11258;52.516;13.318;2023-03-19T07:43:17;24.57;;;14.50;;
22184;SDS011;11258;52.516;13.318;2023-03-19T07:45:42;21.23;;;14.67;;
22184;SDS011;11258;52.516;13.318;2023-03-19T07:48:08;22.97;;;13.53;;
22184;SDS011;11258;52.516;13.318;2023-03-19T07:50:35;22.70;;;14.47;;
22184;SDS011;11258;52.516;13.318;2023-03-19T07:53:00;45.47;;;28.00;;
22184;SDS011;11258;52.516;13.318;2023-03-19T07:55:26;23.17;;;15.03;;
22184;SDS011;11258;52.516;13.318;2023-03-19T07:57:51;21.67;;;14.53;;
22184;SDS011;11258;52.516;13.318;2023-03-19T08:00:17;20.63;;;14.23;;
22184;SDS011;11258;52.516;13.318;2023-03-19T08:02:43;18.97;;;14.10;;
22184;SDS011;11258;52.516;13.318;2023-03-19T08:05:09;18.60;;;14.60;;
22184;SDS011;11258;52.516;13.318;2023-03-19T08:07:35;23.47;;;14.97;;
22184;SDS011;11258;52.516;13.318;2023-03-19T08:10:02;22.77;;;15.00;;
22184;SDS011;11258;52.516;13.318;2023-03-19T08:12:28;19.10;;;13.43;;
22184;SDS011;11258;52.516;13.318;2023-03-19T08:14:55;19.97;;;14.70;;
22184;SDS011;11258;52.516;13.318;2023-03-19T08:17:21;19.87;;;14.10;;
22184;SDS011;11258;52.516;13.318;2023-03-19T08:19:47;25.30;;;14.83;;
22184;SDS011;11258;52.516;13.318;2023-03-19T08:22:12;26.23;;;14.73;;
22184;SDS011;11258;52.516;13.318;2023-03-19T08:24:38;20.17;;;14.97;;
22184;SDS011;11258;52.516;13.318;2023-03-19T08:27:04;22.13;;;15.83;;
22184;SDS011;11258;52.516;13.318;2023-03-19T08:29:30;20.90;;;15.60;;
22184;SDS011;11258;52.516;13.318;2023-03-19T08:31:56;23.53;;;14.60;;
22184;SDS011;11258;52.516;13.318;2023-03-19T08:34:22;20.03;;;15.10;;
22184;SDS011;11258;52.516;13.318;2023-03-19T08:36:48;20.93;;;14.60;;
22184;SDS011;11258;52.516;13.318;2023-03-19T08:39:14;21.87;;;14.20;;
22184;SDS011;11258;52.516;13.318;2023-03-19T08:41:40;21.07;;;14.73;;
22184;SDS011;11258;52.516;13.318;2023-03-19T08:44:05;23.07;;;15.23;;
22184;SDS011;11258;52.516;13.318;2023-03-19T08:46:31;22.83;;;14.73;;
22184;SDS011;11258;52.516;13.318;2023-03-19T08:48:57;24.47;;;15.93;;
22184;SDS011;11258;52.516;13.318;2023-03-19T08:51:24;23.57;;;15.83;;
22184;SDS011;11258;52.516;13.318;2023-03-19T08:53:50;25.53;;;16.43;;
22184;SDS011;11258;52.516;13.318;2023-03-19T08:56:16;25.23;;;16.07;;
22184;SDS011;11258;52.516;13.318;2023-03-19T08:58:42;21.50;;;15.30;;
22184;SDS011;11258;52.516;13.318;2023-03-19T09:01:10;21.00;;;15.33;;
22184;SDS011;11258;52.516;13.318;2023-03-19T09:03:37;25.80;;;14.93;;
22184;SDS011;11258;52.516;13.318;2023-03-19T09:06:04;20.83;;;15.00;;
22184;SDS011;11258;52.516;13.318;2023-03-19T09:08:30;20.07;;;14.40;;
22184;SDS011;11258;52.516;13.318;2023-03-19T09:10:56;21.07;;;14.13;;
22184;SDS011;11258;52.516;13.318;2023-03-19T09:13:23;22.57;;;15.07;;
22184;SDS011;11258;52.516;13.318;2023-03-19T09:15:49;20.70;;;14.47;;
22184;SDS011;11258;52.516;13.318;2023-03-19T09:18:15;19.97;;;14.83;;
22184;SDS011;11258;52.516;13.318;2023-03-19T09:20:42;22.70;;;15.20;;
22184;SDS011;11258;52.516;13.318;2023-03-19T09:23:07;20.20;;;14.67;;
22184;SDS011;11258;52.516;13.318;2023-03-19T09:25:33;18.50;;;14.20;;
22184;SDS011;11258;52.516;13.318;2023-03-19T09:27:59;16.57;;;12.60;;
22184;SDS011;11258;52.516;13.318;2023-03-19T09:30:25;17.83;;;12.90;;
22184;SDS011;11258;52.516;13.318;2023-03-19T09:32:51;19.70;;;13.57;;
22184;SDS011;11258;52.516;13.318;2023-03-19T09:35:16;21.60;;;15.57;;
22184;SDS011;11258;52.516;13.318;2023-03-19T09:37:42;24.67;;;16.50;;
22184;SDS011;11258;52.516;13.318;2023-03-19T09:40:12;26.70;;;15.17;;
22184;SDS011;11258;52.516;13.318;2023-03-19T09:45:33;17.50;;;12.67;;
22184;SDS011;11258;52.516;13.318;2023-03-19T09:48:00;20.90;;;13.10;;
22184;SDS011;11258;52.516;13.318;2023-03-19T09:50:30;17.97;;;13.23;;
22184;SDS011;11258;52.516;13.318;2023-03-19T09:53:16;18.70;;;13.27;;
22184;SDS011;11258;52.516;13.318;2023-03-19T09:55:59;15.97;;;11.60;;
22184;SDS011;11258;52.516;13.318;2023-03-19T09:58:32;17.40;;;12.70;;
22184;SDS011;11258;52.516;13.318;2023-03-19T10:01:00;17.53;;;11.87;;
22184;SDS011;11258;52.516;13.318;2023-03-19T10:14:04;18.27;;;13.73;;
22184;SDS011;11258;52.516;13.318;2023-03-19T10:16:53;15.97;;;11.50;;
22184;SDS011;11258;52.516;13.318;2023-03-19T10:19:23;17.33;;;10.53;;
22184;SDS011;11258;52.516;13.318;2023-03-19T10:22:22;16.87;;;11.20;;
22184;SDS011;11258;52.516;13.318;2023-03-19T10:24:52;15.20;;;9.97;;
22184;SDS011;11258;52.516;13.318;2023-03-19T10:27:21;12.87;;;10.40;;
22184;SDS011;11258;52.516;13.318;2023-03-19T10:29:50;14.63;;;10.87;;
22184;SDS011;11258;52.516;13.318;2023-03-19T10:34:54;15.47;;;10.77;;
22184;SDS011;11258;52.516;13.318;2023-03-19T10:37:29;17.73;;;10.87;;
22184;SDS011;11258;52.516;13.318;2023-03-19T10:39:55;16.37;;;11.73;;
22184;SDS011;11258;52.516;13.318;2023-03-19T10:47:52;15.47;;;10.47;;
22184;SDS011;11258;52.516;13.318;2023-03-19T10:50:21;16.83;;;10.70;;
22184;SDS011;11258;52.516;13.318;2023-03-19T10:55:37;15.03;;;9.70;;
22184;SDS011;11258;52.516;13.318;2023-03-19T10:58:18;15.67;;;9.70;;
22184;SDS011;11258;52.516;13.318;2023-03-19T11:00:47;13.23;;;9.63;;
22184;SDS011;11258;52.516;13.318;2023-03-19T11:03:28;16.67;;;10.27;;
22184;SDS011;11258;52.516;13.318;2023-03-19T11:08:32;16.17;;;10.27;;
22184;SDS011;11258;52.516;13.318;2023-03-19T11:11:00;14.40;;;10.00;;
22184;SDS011;11258;52.516;13.318;2023-03-19T11:13:26;15.98;;;9.98;;
22184;SDS011;11258;52.516;13.318;2023-03-19T11:15:52;14.23;;;9.25;;
22184;SDS011;11258;52.516;13.318;2023-03-19T11:18:22;11.43;;;8.95;;
22184;SDS011;11258;52.516;13.318;2023-03-19T11:20:59;12.93;;;9.25;;
22184;SDS011;11258;52.516;13.318;2023-03-19T11:23:31;12.23;;;8.60;;
22184;SDS011;11258;52.516;13.318;2023-03-19T11:26:03;9.37;;;7.93;;
22184;SDS011;11258;52.516;13.318;2023-03-19T11:28:29;11.25;;;8.20;;
22184;SDS011;11258;52.516;13.318;2023-03-19T11:30:59;10.27;;;8.30;;
22184;SDS011;11258;52.516;13.318;2023-03-19T11:39:11;11.17;;;7.90;;
22184;SDS011;11258;52.516;13.318;2023-03-19T11:47:34;8.63;;;6.73;;
22184;SDS011;11258;52.516;13.318;2023-03-19T11:50:26;12.82;;;7.32;;
22184;SDS011;11258;52.516;13.318;2023-03-19T12:01:09;9.48;;;7.05;;
22184;SDS011;11258;52.516;13.318;2023-03-19T12:04:03;8.10;;;6.97;;
22184;SDS011;11258;52.516;13.318;2023-03-19T12:06:51;12.07;;;7.90;;
22184;SDS011;11258;52.516;13.318;2023-03-19T12:12:19;8.73;;;7.22;;
22184;SDS011;11258;52.516;13.318;2023-03-19T12:36:21;12.43;;;7.78;;
22184;SDS011;11258;52.516;13.318;2023-03-19T12:38:52;10.70;;;7.70;;
22184;SDS011;11258;52.516;13.318;2023-03-19T12:41:26;10.57;;;7.38;;
22184;SDS011;11258;52.516;13.318;2023-03-19T12:44:04;8.82;;;7.45;;
22184;SDS011;11258;52.516;13.318;2023-03-19T12:51:51;9.70;;;7.63;;
22184;SDS011;11258;52.516;13.318;2023-03-19T12:54:27;8.52;;;6.60;;
22184;SDS011;11258;52.516;13.318;2023-03-19T13:04:55;7.75;;;6.32;;
22184;SDS011;11258;52.516;13.318;2023-03-19T13:10:25;9.30;;;7.05;;
22184;SDS011;11258;52.516;13.318;2023-03-19T13:12:52;12.82;;;7.68;;
22184;SDS011;11258;52.516;13.318;2023-03-19T13:15:29;9.77;;;7.32;;
22184;SDS011;11258;52.516;13.318;2023-03-19T13:18:13;11.32;;;7.68;;
22184;SDS011;11258;52.516;13.318;2023-03-19T13:23:13;8.82;;;6.90;;
22184;SDS011;11258;52.516;13.318;2023-03-19T13:25:46;11.75;;;6.78;;
22184;SDS011;11258;52.516;13.318;2023-03-19T13:28:21;9.70;;;7.65;;
22184;SDS011;11258;52.516;13.318;2023-03-19T13:33:26;10.77;;;8.13;;
22184;SDS011;11258;52.516;13.318;2023-03-19T13:35:53;9.68;;;7.93;;
22184;SDS011;11258;52.516;13.318;2023-03-19T13:41:22;9.35;;;6.97;;
22184;SDS011;11258;52.516;13.318;2023-03-19T13:43:56;8.57;;;6.82;;
22184;SDS011;11258;52.516;13.318;2023-03-19T13:46:28;11.73;;;8.50;;
22184;SDS011;11258;52.516;13.318;2023-03-19T13:49:08;10.73;;;8.20;;
22184;SDS011;11258;52.516;13.318;2023-03-19T13:51:49;11.45;;;7.72;;
22184;SDS011;11258;52.516;13.318;2023-03-19T13:54:16;10.40;;;7.72;;
22184;SDS011;11258;52.516;13.318;2023-03-19T13:59:35;11.35;;;7.40;;
22184;SDS011;11258;52.516;13.318;2023-03-19T14:04:50;9.57;;;7.68;;
22184;SDS011;11258;52.516;13.318;2023-03-19T14:07:23;10.88;;;7.40;;
22184;SDS011;11258;52.516;13.318;2023-03-19T14:12:36;11.30;;;7.20;;
22184;SDS011;11258;52.516;13.318;2023-03-19T14:25:23;10.43;;;7.78;;
22184;SDS011;11258;52.516;13.318;2023-03-19T14:27:55;10.00;;;6.88;;
22184;SDS011;11258;52.516;13.318;2023-03-19T14:33:14;10.82;;;6.22;;
22184;SDS011;11258;52.516;13.318;2023-03-19T14:35:44;8.52;;;6.35;;
22184;SDS011;11258;52.516;13.318;2023-03-19T14:40:56;8.52;;;6.30;;
22184;SDS011;11258;52.516;13.318;2023-03-19T14:46:24;9.27;;;6.22;;
22184;SDS011;11258;52.516;13.318;2023-03-19T14:54:50;9.70;;;6.72;;
22184;SDS011;11258;52.516;13.318;2023-03-19T14:57:21;8.95;;;6.50;;
22184;SDS011;11258;52.516;13.318;2023-03-19T14:59:50;10.30;;;6.45;;
22184;SDS011;11258;52.516;13.318;2023-03-19T15:04:58;10.55;;;6.47;;
22184;SDS011;11258;52.516;13.318;2023-03-19T15:07:30;7.93;;;6.25;;
22184;SDS011;11258;52.516;13.318;2023-03-19T15:10:02;10.73;;;7.30;;
22184;SDS011;11258;52.516;13.318;2023-03-19T15:18:11;11.13;;;6.97;;
22184;SDS011;11258;52.516;13.318;2023-03-19T15:20:43;10.35;;;6.97;;
22184;SDS011;11258;52.516;13.318;2023-03-19T15:23:11;9.30;;;6.07;;
22184;SDS011;11258;52.516;13.318;2023-03-19T15:25:48;8.63;;;6.43;;
22184;SDS011;11258;52.516;13.318;2023-03-19T15:28:15;8.98;;;6.32;;
22184;SDS011;11258;52.516;13.318;2023-03-19T15:30:42;9.63;;;6.13;;
22184;SDS011;11258;52.516;13.318;2023-03-19T15:33:18;8.73;;;7.03;;
22184;SDS011;11258;52.516;13.318;2023-03-19T15:35:50;7.97;;;6.00;;
22184;SDS011;11258;52.516;13.318;2023-03-19T15:38:22;20.95;;;9.90;;
22184;SDS011;11258;52.516;13.318;2023-03-19T15:40:49;10.40;;;6.72;;
22184;SDS011;11258;52.516;13.318;2023-03-19T15:43:15;13.88;;;6.93;;
22184;SDS011;11258;52.516;13.318;2023-03-19T15:45:44;9.45;;;7.75;;
22184;SDS011;11258;52.516;13.318;2023-03-19T15:48:16;11.83;;;8.03;;
22184;SDS011;11258;52.516;13.318;2023-03-19T15:50:46;12.13;;;7.25;;
22184;SDS011;11258;52.516;13.318;2023-03-19T15:53:19;8.95;;;6.93;;
22184;SDS011;11258;52.516;13.318;2023-03-19T15:55:49;8.48;;;7.18;;
22184;SDS011;11258;52.516;13.318;2023-03-19T15:58:19;9.18;;;6.72;;
22184;SDS011;11258;52.516;13.318;2023-03-19T16:00:47;9.65;;;7.32;;
22184;SDS011;11258;52.516;13.318;2023-03-19T16:03:16;13.60;;;7.65;;
22184;SDS011;11258;52.516;13.318;2023-03-19T16:05:44;12.80;;;8.27;;
22184;SDS011;11258;52.516;13.318;2023-03-19T16:08:23;11.90;;;7.80;;
22184;SDS011;11258;52.516;13.318;2023-03-19T16:10:50;14.75;;;8.95;;
22184;SDS011;11258;52.516;13.318;2023-03-19T16:13:38;13.27;;;7.30;;
22184;SDS011;11258;52.516;13.318;2023-03-19T16:16:10;12.60;;;7.28;;
22184;SDS011;11258;52.516;13.318;2023-03-19T16:18:47;10.93;;;7.93;;
22184;SDS011;11258;52.516;13.318;2023-03-19T16:21:17;14.02;;;10.32;;
22184;SDS011;11258;52.516;13.318;2023-03-19T16:23:54;12.05;;;7.32;;
22184;SDS011;11258;52.516;13.318;2023-03-19T16:26:34;14.18;;;8.23;;
22184;SDS011;11258;52.516;13.318;2023-03-19T16:29:21;10.80;;;7.55;;
22184;SDS011;11258;52.516;13.318;2023-03-19T16:31:51;9.80;;;7.05;;
22184;SDS011;11258;52.516;13.318;2023-03-19T16:36:52;11.55;;;7.30;;
22184;SDS011;11258;52.516;13.318;2023-03-19T16:41:55;12.88;;;9.75;;
22184;SDS011;11258;52.516;13.318;2023-03-19T16:44:32;23.92;;;15.20;;